Wind From: 13-12-2017 10:08 Until: 14-12-2017 06:00 warning for: Wind Level: Yellow info button

Although rather usual in this region, locally or potentially dangerous phenomena are expected. (such as local winds, summer thunderstorms, rising streams or high waves) Be aware and pay attention to the latest weather updates, especially if you carry out activities exposed to weather or close to a stream or shoreline. 


Meteo18 Weather Cam more information Meteo18 Weather Cam


Thunder radar more information blitzortung!


Rain radar more information rain snow radar


Visit our other weather sites:

Template documentation
and downloads

And another site



Weather Underground History page Text

Daily Summary for August 3, 2017 Units:  English    Metric   Both
« Previous Day
Next Day »
Daily Weekly Monthly Yearly Custom
  High: Low: Average:
Temperature: 79.3 °F 62.4 °F 71.2 °F
Dew Point: 66.7 °F 59.4 °F 62.8 °F
Humidity: 91 % 59 % 75 %
Wind Speed: 20 mph 0 mph 5.7 mph
Wind Gust: 24 mph - -
Wind:- - WSW
Pressure: 30.1 in 30 in -
Precipitation: 0 in    
Historical Graphs
 
 
Tabular Data for August 3, 2017
Time Temperature Dew Point Pressure Wind Wind Speed Wind Gust Humidity Rainfall Rate (Hourly)
00:02 72.1 °F 66 °F 30 in Calm   1 mph 81 % 0 in
00:07 72.9 °F 65.3 °F 30 in WNW 2 mph 3 mph 77 % 0 in
00:12 73.2 °F 64.8 °F 30 in Calm   3 mph 75 % 0 in
00:17 73.4 °F 64.6 °F 30 in Calm   3 mph 74 % 0 in
00:22 73.2 °F 64.4 °F 30 in Calm   3 mph 74 % 0 in
00:27 73.6 °F 64.4 °F 30 in Calm   3 mph 73 % 0 in
00:32 73.6 °F 64 °F 30 in Calm   1 mph 72 % 0 in
00:37 73.6 °F 63.7 °F 30 in Calm   1 mph 71 % 0 in
00:42 73.8 °F 63.3 °F 30 in West 1 mph 2 mph 70 % 0 in
00:47 73.9 °F 63.5 °F 30 in Calm   2 mph 70 % 0 in
00:52 73.8 °F 63.3 °F 30 in West 2 mph 2 mph 70 % 0 in
01:02 73.6 °F 62.8 °F 30 in WSW 1 mph 3 mph 69 % 0 in
01:07 73.2 °F 62.4 °F 30 in West 2 mph 4 mph 69 % 0 in
01:12 73.2 °F 62.4 °F 30 in WNW 3 mph 5 mph 69 % 0 in
01:17 73.2 °F 62.1 °F 30 in West 2 mph 5 mph 68 % 0 in
01:22 73 °F 62.2 °F 30 in WNW 2 mph 6 mph 69 % 0 in
01:27 72.9 °F 62.1 °F 30 in NW 3 mph 6 mph 69 % 0 in
01:32 72.7 °F 61.9 °F 30 in West 1 mph 5 mph 69 % 0 in
01:42 72.7 °F 61.9 °F 30 in Calm   4 mph 69 % 0 in
01:47 72.5 °F 61.3 °F 30 in Calm   4 mph 68 % 0 in
01:52 72.3 °F 61.5 °F 30 in Calm   4 mph 69 % 0 in
01:57 72.1 °F 61.3 °F 30 in Calm   2 mph 69 % 0 in
02:02 72 °F 61.7 °F 30 in Calm   1 mph 70 % 0 in
02:07 71.6 °F 61.7 °F 30 in Calm   2 mph 71 % 0 in
02:12 71.1 °F 61.5 °F 30 in Calm   2 mph 72 % 0 in
02:17 70.7 °F 62.1 °F 30 in Calm   2 mph 74 % 0 in
02:22 70 °F 61.7 °F 30 in Calm   1 mph 75 % 0 in
02:27 69.3 °F 62.1 °F 30 in Calm   1 mph 78 % 0 in
02:32 68.7 °F 61.9 °F 30 in Calm   1 mph 79 % 0 in
02:37 69.1 °F 61.5 °F 30 in Calm   1 mph 77 % 0 in
02:42 69.6 °F 61.3 °F 30 in Calm   1 mph 75 % 0 in
02:47 70 °F 61.3 °F 30 in Calm   1 mph 74 % 0 in
02:52 69.8 °F 61.5 °F 30 in Calm     75 % 0 in
02:57 69.1 °F 61.5 °F 30 in Calm     77 % 0 in
03:02 69.1 °F 61.2 °F 30 in Calm     76 % 0 in
03:07 69.1 °F 61.2 °F 30 in Calm     76 % 0 in
03:12 69.1 °F 61.2 °F 30 in Calm     76 % 0 in
03:17 69.1 °F 61.2 °F 30 in Calm     76 % 0 in
03:22 68.9 °F 61 °F 30 in Calm     76 % 0 in
03:27 68.5 °F 61 °F 30 in Calm     77 % 0 in
03:32 68.2 °F 61.3 °F 30 in Calm     79 % 0 in
03:37 67.8 °F 61.3 °F 30 in Calm     80 % 0 in
03:42 67.6 °F 61.2 °F 30 in Calm     80 % 0 in
03:47 67.5 °F 61.3 °F 30 in Calm   2 mph 81 % 0 in
03:52 67.1 °F 61.3 °F 30 in Calm   2 mph 82 % 0 in
03:57 66.4 °F 61.3 °F 30 in Calm   2 mph 84 % 0 in
04:02 66 °F 61 °F 30 in Calm   1 mph 84 % 0 in
04:07 65.7 °F 61 °F 30 in Calm     85 % 0 in
04:12 65.7 °F 61 °F 30 in Calm   1 mph 85 % 0 in
04:17 65.5 °F 60.8 °F 30 in Calm   2 mph 85 % 0 in
04:22 65.1 °F 60.4 °F 30 in Calm   2 mph 85 % 0 in
04:32 64.9 °F 60.6 °F 30 in Calm   1 mph 86 % 0 in
04:37 64.8 °F 60.4 °F 30 in Calm   1 mph 86 % 0 in
04:42 64.6 °F 60.6 °F 30 in Calm   1 mph 87 % 0 in
04:47 64.6 °F 60.6 °F 30 in Calm   1 mph 87 % 0 in
04:52 64.6 °F 60.6 °F 30 in Calm   1 mph 87 % 0 in
04:57 64.6 °F 60.6 °F 30 in Calm   2 mph 87 % 0 in
05:02 64.6 °F 60.6 °F 30 in Calm   2 mph 87 % 0 in
05:07 64.2 °F 60.3 °F 30 in Calm   1 mph 87 % 0 in
05:12 64.2 °F 60.6 °F 30 in ESE 1 mph 2 mph 88 % 0 in
05:22 63.7 °F 60.1 °F 30 in South 1 mph 2 mph 88 % 0 in
05:27 63.5 °F 60.3 °F 30 in SSW 1 mph 3 mph 89 % 0 in
05:32 63.3 °F 60.1 °F 30 in SW 2 mph 3 mph 89 % 0 in
05:37 63.3 °F 60.1 °F 30 in SW 2 mph 4 mph 89 % 0 in
05:42 63.5 °F 60.3 °F 30 in SW 1 mph 4 mph 89 % 0 in
05:47 63.7 °F 60.4 °F 30 in Calm   4 mph 89 % 0 in
05:52 63.7 °F 60.1 °F 30 in Calm   3 mph 88 % 0 in
05:57 63.9 °F 60.3 °F 30 in Calm   3 mph 88 % 0 in
06:02 63.5 °F 59.9 °F 30 in SSW 1 mph 2 mph 88 % 0 in
06:12 63.1 °F 59.9 °F 30 in Calm   2 mph 89 % 0 in
06:17 63 °F 59.7 °F 30 in South 1 mph 2 mph 89 % 0 in
06:22 62.8 °F 59.7 °F 30 in SSW 2 mph 3 mph 90 % 0 in
06:27 62.8 °F 59.7 °F 30 in SSW 1 mph 3 mph 90 % 0 in
06:32 62.6 °F 59.5 °F 30 in Calm   3 mph 90 % 0 in
06:37 62.4 °F 59.4 °F 30 in Calm   3 mph 90 % 0 in
06:42 62.8 °F 60.1 °F 30 in WSW 2 mph 2 mph 91 % 0 in
06:52 63.1 °F 59.9 °F 30 in SW 1 mph 4 mph 89 % 0 in
07:02 63.1 °F 59.9 °F 30 in Calm   4 mph 89 % 0 in
07:12 63.3 °F 60.1 °F 30 in SSW 2 mph 4 mph 89 % 0 in
07:17 63.1 °F 60.1 °F 30 in SSW 2 mph 5 mph 90 % 0 in
07:22 63 °F 60.3 °F 30.1 in SW 2 mph 5 mph 91 % 0 in
07:27 63.1 °F 60.4 °F 30.1 in SSW 4 mph 5 mph 91 % 0 in
07:32 63.1 °F 60.4 °F 30.1 in SSW 2 mph 6 mph 91 % 0 in
07:42 63.7 °F 60.6 °F 30.1 in West 7 mph 9 mph 90 % 0 in
07:47 63.9 °F 60.6 °F 30.1 in SSW 3 mph 10 mph 89 % 0 in
07:57 64 °F 60.4 °F 30.1 in South 6 mph 10 mph 88 % 0 in
08:02 64 °F 60.4 °F 30.1 in SW 8 mph 11 mph 88 % 0 in
08:12 64.6 °F 60.6 °F 30.1 in SW 6 mph 11 mph 87 % 0 in
08:17 64.8 °F 60.8 °F 30.1 in SSW 5 mph 11 mph 87 % 0 in
08:22 64.8 °F 60.4 °F 30.1 in West 4 mph 13 mph 86 % 0 in
08:27 64.9 °F 60.6 °F 30.1 in SW 6 mph 13 mph 86 % 0 in
08:32 65.1 °F 60.8 °F 30.1 in SSW 4 mph 13 mph 86 % 0 in
08:37 65.1 °F 60.4 °F 30.1 in SW 4 mph 12 mph 85 % 0 in
08:42 65.3 °F 60.6 °F 30.1 in SW 4 mph 12 mph 85 % 0 in
08:47 65.5 °F 60.8 °F 30.1 in SW 2 mph 11 mph 85 % 0 in
08:52 65.7 °F 61 °F 30.1 in SW 6 mph 10 mph 85 % 0 in
08:57 65.8 °F 60.8 °F 30.1 in WSW 5 mph 12 mph 84 % 0 in
09:02 66.4 °F 61.3 °F 30.1 in West 2 mph 14 mph 84 % 0 in
09:12 66.7 °F 61 °F 30.1 in West 5 mph 12 mph 82 % 0 in
09:17 66.9 °F 61.2 °F 30.1 in SSW 5 mph 12 mph 82 % 0 in
09:22 66.9 °F 61.2 °F 30.1 in NW 3 mph 13 mph 82 % 0 in
09:27 66.9 °F 61.2 °F 30.1 in WSW 6 mph 13 mph 82 % 0 in
09:32 66.7 °F 61 °F 30.1 in WSW 6 mph 13 mph 82 % 0 in
09:37 66.7 °F 61.3 °F 30.1 in West 7 mph 11 mph 83 % 0 in
09:42 66.7 °F 61 °F 30.1 in SW 7 mph 11 mph 82 % 0 in
09:47 66.9 °F 61.5 °F 30.1 in SW 7 mph 11 mph 83 % 0 in
09:52 66.9 °F 61.2 °F 30.1 in SW 2 mph 11 mph 82 % 0 in
09:57 67.3 °F 61.9 °F 30.1 in WNW 1 mph 12 mph 83 % 0 in
10:02 67.5 °F 61.7 °F 30.1 in West 6 mph 12 mph 82 % 0 in
10:12 67.8 °F 62.1 °F 30.1 in SW 6 mph 12 mph 82 % 0 in
10:17 68 °F 62.2 °F 30.1 in SW 8 mph 12 mph 82 % 0 in
10:22 68.2 °F 62.4 °F 30.1 in WSW 2 mph 10 mph 82 % 0 in
10:32 68.5 °F 62.4 °F 30.1 in West 5 mph 13 mph 81 % 0 in
10:37 68.7 °F 62.6 °F 30.1 in SW 6 mph 13 mph 81 % 0 in
10:42 69.1 °F 63 °F 30.1 in WSW 5 mph 12 mph 81 % 0 in
10:47 69.3 °F 62.8 °F 30.1 in WSW 4 mph 12 mph 80 % 0 in
10:52 69.4 °F 63 °F 30.1 in West 10 mph 12 mph 80 % 0 in
10:57 69.6 °F 63.1 °F 30.1 in SW 5 mph 15 mph 80 % 0 in
11:02 69.8 °F 63.3 °F 30.1 in SW 7 mph 16 mph 80 % 0 in
11:07 70 °F 63.5 °F 30.1 in West 9 mph 16 mph 80 % 0 in
11:12 70 °F 63.1 °F 30.1 in SW 8 mph 16 mph 79 % 0 in
11:17 69.8 °F 63 °F 30.1 in West 3 mph 15 mph 79 % 0 in
11:22 69.8 °F 63.3 °F 30.1 in SW 8 mph 15 mph 80 % 0 in
11:27 70 °F 63.9 °F 30.1 in SW 9 mph 14 mph 81 % 0 in
11:32 70.2 °F 63.7 °F 30.1 in SW 13 mph 14 mph 80 % 0 in
11:37 70.5 °F 63.7 °F 30.1 in WSW 10 mph 16 mph 79 % 0 in
11:42 70.7 °F 63.9 °F 30.1 in SSW 6 mph 16 mph 79 % 0 in
11:47 71.1 °F 63.9 °F 30.1 in WSW 6 mph 16 mph 78 % 0 in
11:52 71.4 °F 64.6 °F 30.1 in WSW 12 mph 15 mph 79 % 0 in
11:57 71.4 °F 64.2 °F 30.1 in WSW 13 mph 15 mph 78 % 0 in
12:02 71.4 °F 64.2 °F 30.1 in South 4 mph 15 mph 78 % 0 in
12:07 71.4 °F 64.6 °F 30.1 in SW 2 mph 15 mph 79 % 0 in
12:12 71.8 °F 64.6 °F 30.1 in WSW 7 mph 16 mph 78 % 0 in
12:17 72.5 °F 65.3 °F 30.1 in West 6 mph 16 mph 78 % 0 in
12:22 72.7 °F 64.8 °F 30.1 in SW 8 mph 17 mph 76 % 0 in
12:32 72.1 °F 64.6 °F 30.1 in WSW 10 mph 18 mph 77 % 0 in
12:42 72.7 °F 65.5 °F 30.1 in SW 11 mph 20 mph 78 % 0 in
12:47 72.9 °F 65.3 °F 30.1 in WSW 11 mph 19 mph 77 % 0 in
12:52 72.7 °F 64.8 °F 30.1 in West 11 mph 14 mph 76 % 0 in
12:57 72.7 °F 64.8 °F 30.1 in WSW 4 mph 13 mph 76 % 0 in
13:02 72.9 °F 64.8 °F 30.1 in SW 8 mph 15 mph 76 % 0 in
13:07 72.7 °F 64.8 °F 30.1 in West 3 mph 15 mph 76 % 0 in
13:12 72.9 °F 64.8 °F 30.1 in West 9 mph 15 mph 76 % 0 in
13:17 72.9 °F 64.8 °F 30.1 in WSW 9 mph 15 mph 76 % 0 in
13:22 72.7 °F 64.8 °F 30.1 in West 9 mph 15 mph 76 % 0 in
13:27 72.7 °F 64.8 °F 30.1 in SW 4 mph 16 mph 76 % 0 in
13:32 72.7 °F 65.1 °F 30.1 in SW 4 mph 16 mph 77 % 0 in
13:37 72.5 °F 64.9 °F 30.1 in West 4 mph 16 mph 77 % 0 in
13:42 72.9 °F 65.3 °F 30.1 in SW 9 mph 16 mph 77 % 0 in
13:47 73.2 °F 65.7 °F 30.1 in WSW 7 mph 14 mph 77 % 0 in
13:52 73.6 °F 65.5 °F 30.1 in WSW 12 mph 14 mph 76 % 0 in
13:57 73.8 °F 65.3 °F 30.1 in WSW 7 mph 16 mph 75 % 0 in
14:02 73.9 °F 65.1 °F 30.1 in WSW 9 mph 16 mph 74 % 0 in
14:07 74.1 °F 64.9 °F 30.1 in SSW 11 mph 16 mph 73 % 0 in
14:12 74.1 °F 65.3 °F 30.1 in West 5 mph 14 mph 74 % 0 in
14:17 74.3 °F 65.1 °F 30.1 in WSW 8 mph 17 mph 73 % 0 in
14:22 74.5 °F 64.9 °F 30.1 in WSW 9 mph 17 mph 72 % 0 in
14:27 75 °F 64.9 °F 30.1 in West 7 mph 17 mph 71 % 0 in
14:32 75 °F 64.6 °F 30.1 in SW 5 mph 16 mph 70 % 0 in
14:37 75.2 °F 65.1 °F 30.1 in West 7 mph 16 mph 71 % 0 in
14:42 75 °F 64.9 °F 30.1 in WSW 5 mph 16 mph 71 % 0 in
14:47 75 °F 64.6 °F 30.1 in West 9 mph 17 mph 70 % 0 in
14:52 75.2 °F 64.8 °F 30.1 in West 10 mph 17 mph 70 % 0 in
14:57 75.6 °F 64.8 °F 30.1 in West 11 mph 17 mph 69 % 0 in
15:02 75.6 °F 65.5 °F 30.1 in West 5 mph 17 mph 71 % 0 in
15:12 75.7 °F 65.7 °F 30.1 in SSW 10 mph 15 mph 71 % 0 in
15:17 76.3 °F 66.2 °F 30.1 in SW 8 mph 15 mph 71 % 0 in
15:22 76.3 °F 65.3 °F 30.1 in SSW 16 mph 17 mph 69 % 0 in
15:27 75.7 °F 65.3 °F 30.1 in West 11 mph 20 mph 70 % 0 in
15:37 76.8 °F 66.7 °F 30.1 in WSW 14 mph 21 mph 71 % 0 in
15:42 77.4 °F 66 °F 30.1 in West 13 mph 19 mph 68 % 0 in
15:47 77 °F 65.1 °F 30.1 in WSW 13 mph 22 mph 67 % 0 in
15:52 77 °F 65.7 °F 30.1 in SW 14 mph 22 mph 68 % 0 in
15:57 77.4 °F 66 °F 30.1 in WSW 14 mph 22 mph 68 % 0 in
16:02 77.4 °F 65.5 °F 30 in WSW 14 mph 21 mph 67 % 0 in
16:07 77.4 °F 65.1 °F 30 in SW 20 mph 22 mph 66 % 0 in
16:12 76.8 °F 65.5 °F 30 in WSW 15 mph 23 mph 68 % 0 in
16:17 76.8 °F 65.5 °F 30 in WSW 8 mph 23 mph 68 % 0 in
16:22 76.8 °F 65.8 °F 30 in SSW 7 mph 23 mph 69 % 0 in
16:32 77.5 °F 64.8 °F 30 in SW 6 mph 17 mph 65 % 0 in
16:37 77.4 °F 65.1 °F 30 in SW 16 mph 22 mph 66 % 0 in
16:42 77.2 °F 64.9 °F 30 in SW 12 mph 22 mph 66 % 0 in
16:47 77.5 °F 64.8 °F 30 in SW 14 mph 19 mph 65 % 0 in
16:52 77.5 °F 64.4 °F 30 in SW 12 mph 20 mph 64 % 0 in
16:57 77.7 °F 63.7 °F 30 in West 11 mph 20 mph 62 % 0 in
17:02 78.1 °F 63.5 °F 30 in WSW 7 mph 20 mph 61 % 0 in
17:07 78.4 °F 64.8 °F 30 in SW 11 mph 19 mph 63 % 0 in
17:12 78.6 °F 64 °F 30 in WSW 6 mph 19 mph 61 % 0 in
17:17 79 °F 64.4 °F 30 in West 6 mph 19 mph 61 % 0 in
17:22 79 °F 63.9 °F 30 in WSW 18 mph 18 mph 60 % 0 in
17:27 79 °F 64.4 °F 30 in West 13 mph 21 mph 61 % 0 in
17:32 79 °F 63.9 °F 30 in WSW 8 mph 21 mph 60 % 0 in
17:37 79.3 °F 65.1 °F 30 in SW 7 mph 21 mph 62 % 0 in
17:42 79.2 °F 64.9 °F 30 in West 13 mph 18 mph 62 % 0 in
17:47 79 °F 64.8 °F 30 in West 9 mph 18 mph 62 % 0 in
17:52 79 °F 64.4 °F 30 in WSW 13 mph 21 mph 61 % 0 in
17:57 79.2 °F 64.9 °F 30 in SSW 7 mph 24 mph 62 % 0 in
18:02 79.2 °F 64.6 °F 30 in West 15 mph 24 mph 61 % 0 in
18:07 79.2 °F 64.6 °F 30 in SW 18 mph 20 mph 61 % 0 in
18:12 78.8 °F 64.8 °F 30 in SSW 14 mph 19 mph 62 % 0 in
18:22 78.4 °F 64.8 °F 30 in SW 5 mph 20 mph 63 % 0 in
18:27 78.3 °F 64.2 °F 30 in SW 10 mph 22 mph 62 % 0 in
18:32 78.3 °F 64.6 °F 30 in WSW 8 mph 22 mph 63 % 0 in
18:37 78.4 °F 65.7 °F 30 in SW 19 mph 19 mph 65 % 0 in
18:42 78.4 °F 65.3 °F 30 in SW 11 mph 19 mph 64 % 0 in
18:47 78.4 °F 64.8 °F 30 in WSW 13 mph 21 mph 63 % 0 in
18:52 78.6 °F 65.5 °F 30 in SSW 11 mph 21 mph 64 % 0 in
18:57 78.3 °F 64.6 °F 30 in WSW 6 mph 21 mph 63 % 0 in
19:02 78.1 °F 64.9 °F 30 in WSW 12 mph 21 mph 64 % 0 in
19:07 77.5 °F 65.3 °F 30 in SW 9 mph 20 mph 66 % 0 in
19:12 77 °F 65.1 °F 30 in SW 6 mph 17 mph 67 % 0 in
19:17 77 °F 65.1 °F 30 in West 5 mph 19 mph 67 % 0 in
19:22 76.8 °F 64.9 °F 30 in SW 6 mph 19 mph 67 % 0 in
19:27 76.8 °F 65.5 °F 30 in SW 16 mph 19 mph 68 % 0 in
19:32 76.6 °F 65.3 °F 30 in SW 16 mph 20 mph 68 % 0 in
19:37 76.5 °F 65.5 °F 30 in SW 8 mph 20 mph 69 % 0 in
19:42 76.6 °F 65.7 °F 30 in SW 7 mph 20 mph 69 % 0 in
19:47 76.8 °F 64.6 °F 30 in SW 11 mph 19 mph 66 % 0 in
19:52 77.4 °F 63.3 °F 30 in SW 9 mph 19 mph 62 % 0 in
19:57 77.7 °F 63.1 °F 30 in West 10 mph 19 mph 61 % 0 in
20:02 77.7 °F 62.2 °F 30 in SW 14 mph 19 mph 59 % 0 in
20:12 76.8 °F 61.3 °F 30 in West 11 mph 20 mph 59 % 0 in
20:17 76.6 °F 61.7 °F 30 in West 12 mph 21 mph 60 % 0 in
20:22 76.5 °F 62.1 °F 30 in WSW 11 mph 21 mph 61 % 0 in
20:27 76.1 °F 61.7 °F 30 in SSW 7 mph 19 mph 61 % 0 in
20:32 75.7 °F 61.9 °F 30 in WSW 8 mph 19 mph 62 % 0 in
20:37 75.4 °F 61.9 °F 30 in WSW 12 mph 17 mph 63 % 0 in
20:42 75 °F 62.1 °F 30 in West 9 mph 17 mph 64 % 0 in
20:47 74.8 °F 61.9 °F 30 in WSW 11 mph 17 mph 64 % 0 in
20:52 74.8 °F 61.9 °F 30 in SW 5 mph 14 mph 64 % 0 in
20:57 74.3 °F 61.7 °F 30 in WSW 11 mph 14 mph 65 % 0 in
21:02 74.1 °F 61.2 °F 30 in West 8 mph 14 mph 64 % 0 in
21:12 73.8 °F 61.3 °F 30 in WSW 6 mph 18 mph 65 % 0 in
21:17 73.6 °F 61.5 °F 30 in SW 4 mph 18 mph 66 % 0 in
21:22 73.2 °F 61.5 °F 30 in SW 9 mph 13 mph 67 % 0 in
21:27 73 °F 61.5 °F 30 in WSW 7 mph 13 mph 67 % 0 in
21:32 72.9 °F 61.7 °F 30 in SW 6 mph 14 mph 68 % 0 in
21:37 72.7 °F 61.9 °F 30 in WSW 7 mph 14 mph 69 % 0 in
21:42 72.5 °F 61.7 °F 30 in WSW 8 mph 14 mph 69 % 0 in
21:47 72.3 °F 62.1 °F 30 in SW 3 mph 14 mph 70 % 0 in
21:52 72.1 °F 61.9 °F 30 in SW 7 mph 16 mph 70 % 0 in
21:57 72 °F 62.1 °F 30 in SW 4 mph 16 mph 71 % 0 in
22:02 71.8 °F 61.9 °F 30 in WSW 10 mph 14 mph 71 % 0 in
22:07 71.6 °F 62.1 °F 30 in SW 8 mph 12 mph 72 % 0 in
22:12 71.2 °F 62.1 °F 30 in West 4 mph 12 mph 73 % 0 in
22:17 71.1 °F 61.9 °F 30 in SSW 5 mph 12 mph 73 % 0 in
22:22 70.7 °F 62.1 °F 30.1 in SW 7 mph 11 mph 74 % 0 in
22:27 70.5 °F 61.9 °F 30.1 in West 7 mph 11 mph 74 % 0 in
22:32 70.3 °F 61.7 °F 30.1 in WSW 10 mph 12 mph 74 % 0 in
22:37 70.3 °F 61.7 °F 30.1 in WSW 9 mph 12 mph 74 % 0 in
22:42 70.2 °F 61.5 °F 30.1 in WSW 3 mph 12 mph 74 % 0 in
22:47 70 °F 61.7 °F 30.1 in WSW 7 mph 10 mph 75 % 0 in
22:52 69.6 °F 61.3 °F 30.1 in SSW 6 mph 11 mph 75 % 0 in
22:57 69.6 °F 61.3 °F 30.1 in SW 3 mph 11 mph 75 % 0 in
23:02 69.4 °F 61.5 °F 30.1 in WSW 7 mph 11 mph 76 % 0 in
23:07 69.3 °F 61.3 °F 30.1 in WSW 5 mph 10 mph 76 % 0 in
23:17 68.7 °F 61.2 °F 30.1 in WSW 5 mph 9 mph 77 % 0 in
23:22 68.4 °F 61.2 °F 30.1 in SW 4 mph 9 mph 78 % 0 in
23:32 68.4 °F 61.2 °F 30.1 in SW 5 mph 8 mph 78 % 0 in
23:42 68 °F 61.2 °F 30.1 in WSW 3 mph 9 mph 79 % 0 in
23:47 67.8 °F 61 °F 30.1 in WSW 3 mph 9 mph 79 % 0 in
23:52 67.6 °F 61 °F 30.1 in WSW 2 mph 8 mph 79 % 0 in
23:57 67.5 °F 61.2 °F 30.1 in SSW 3 mph 7 mph 80 % 0 in
Meteo18
Compliments of Weather Underground - 4 mb

Script developed by  Jim McMurry - jmcmurry@mwt.net Adapted for the template by  Wim van der Kuil - Leuven-Template.eu

You find our weather info also at:

European Weather Network

Weather Underground

Equipment we use:

Weather-station
Davis Vue

Weather-program
Meteohub

Weather-server
Raspberry PI 2 B+

Provider
1 and 1

Davis Vue

Meteohub

Raspberry PI 2 B+

1 and 1